Archival Weather

Chicago O'Hare International

Chicago, Illinois (KORD)

Report from: Friday, September 23, 2022 7:51 AM CDT
Current time: Sunday, December 4, 2022 6:38 AM CST

Current weather
Weather history
Weather forecast

Temperature11.7°C (53.1°F)
Dew point7.2°C (45.0°F)
Winds 5 kts (2.6 m/s, 5.8 mph) South (180°)
Visibility10 mi. (16.1 km)
Clouds Ceiling: Broken clouds 2,400 ft. (732 m)
Broken clouds 3,500 ft. (1,067 m)
Broken clouds 25,000 ft. (7,620 m)
Altimeter30.27 in.Hg (1025 mB)
Relative humidity74 %
Density altitude-645 ft. (-197 m)
Sea-level pressure102.5 kPa (1025 mB, 30.27 in.Hg)
Remarks Automated weather observing station with precipitation discriminator
Flight conditions Marginal Visual Meteorological Conditions
Raw dataKORD 231251Z 18005KT 10SM BKN024 BKN035 BKN250 12/07 A3027 RMK AO2 SLP250 T01170072
An error has occurred. This application may no longer respond until reloaded. Reload 🗙